sensor_id;sensor_type;location;lat;lon;timestamp;P1;durP1;ratioP1;P2;durP2;ratioP2
52106;SDS011;38105;52.968;5.974;2022-12-08T00:00:52;3.88;;;0.90;;
52106;SDS011;38105;52.968;5.974;2022-12-08T00:03:18;10.88;;;0.95;;
52106;SDS011;38105;52.968;5.974;2022-12-08T00:05:44;12.82;;;1.10;;
52106;SDS011;38105;52.968;5.974;2022-12-08T00:08:40;5.50;;;0.90;;
52106;SDS011;38105;52.968;5.974;2022-12-08T00:11:24;5.70;;;0.82;;
52106;SDS011;38105;52.968;5.974;2022-12-08T00:13:50;3.42;;;0.50;;
52106;SDS011;38105;52.968;5.974;2022-12-08T00:16:16;6.05;;;0.60;;
52106;SDS011;38105;52.968;5.974;2022-12-08T00:18:41;2.42;;;0.77;;
52106;SDS011;38105;52.968;5.974;2022-12-08T00:21:07;4.75;;;0.65;;
52106;SDS011;38105;52.968;5.974;2022-12-08T00:23:32;6.43;;;0.57;;
52106;SDS011;38105;52.968;5.974;2022-12-08T00:26:04;2.90;;;0.40;;
52106;SDS011;38105;52.968;5.974;2022-12-08T00:28:31;5.85;;;0.70;;
52106;SDS011;38105;52.968;5.974;2022-12-08T00:30:57;8.30;;;1.05;;
52106;SDS011;38105;52.968;5.974;2022-12-08T00:33:23;3.83;;;0.80;;
52106;SDS011;38105;52.968;5.974;2022-12-08T00:35:49;4.63;;;0.40;;
52106;SDS011;38105;52.968;5.974;2022-12-08T00:38:14;2.80;;;0.40;;
52106;SDS011;38105;52.968;5.974;2022-12-08T00:40:46;7.00;;;0.70;;
52106;SDS011;38105;52.968;5.974;2022-12-08T00:43:12;6.25;;;0.57;;
52106;SDS011;38105;52.968;5.974;2022-12-08T00:45:38;10.02;;;1.25;;
52106;SDS011;38105;52.968;5.974;2022-12-08T00:48:04;3.92;;;0.75;;
52106;SDS011;38105;52.968;5.974;2022-12-08T00:50:30;13.13;;;1.13;;
52106;SDS011;38105;52.968;5.974;2022-12-08T00:52:56;4.20;;;0.70;;
52106;SDS011;38105;52.968;5.974;2022-12-08T00:55:22;9.35;;;0.52;;
52106;SDS011;38105;52.968;5.974;2022-12-08T00:57:47;3.45;;;0.73;;
52106;SDS011;38105;52.968;5.974;2022-12-08T01:00:13;3.38;;;0.40;;
52106;SDS011;38105;52.968;5.974;2022-12-08T01:02:39;6.75;;;0.80;;
52106;SDS011;38105;52.968;5.974;2022-12-08T01:05:05;9.75;;;0.90;;
52106;SDS011;38105;52.968;5.974;2022-12-08T01:07:31;7.65;;;1.10;;
52106;SDS011;38105;52.968;5.974;2022-12-08T01:09:57;8.50;;;0.90;;
52106;SDS011;38105;52.968;5.974;2022-12-08T01:12:23;7.97;;;0.70;;
52106;SDS011;38105;52.968;5.974;2022-12-08T01:14:48;5.78;;;0.88;;
52106;SDS011;38105;52.968;5.974;2022-12-08T01:17:14;7.95;;;1.00;;
52106;SDS011;38105;52.968;5.974;2022-12-08T01:19:40;5.03;;;0.90;;
52106;SDS011;38105;52.968;5.974;2022-12-08T01:22:06;6.25;;;0.82;;
52106;SDS011;38105;52.968;5.974;2022-12-08T01:24:32;7.32;;;0.70;;
52106;SDS011;38105;52.968;5.974;2022-12-08T01:26:58;5.25;;;1.15;;
52106;SDS011;38105;52.968;5.974;2022-12-08T01:29:23;5.90;;;0.88;;
52106;SDS011;38105;52.968;5.974;2022-12-08T01:31:50;5.55;;;0.85;;
52106;SDS011;38105;52.968;5.974;2022-12-08T01:34:16;5.05;;;0.90;;
52106;SDS011;38105;52.968;5.974;2022-12-08T01:36:42;4.60;;;0.73;;
52106;SDS011;38105;52.968;5.974;2022-12-08T01:39:10;6.00;;;0.77;;
52106;SDS011;38105;52.968;5.974;2022-12-08T01:41:39;4.72;;;0.40;;
52106;SDS011;38105;52.968;5.974;2022-12-08T01:46:32;3.38;;;1.52;;
52106;SDS011;38105;52.968;5.974;2022-12-08T01:49:13;6.20;;;0.50;;
52106;SDS011;38105;52.968;5.974;2022-12-08T01:51:54;5.88;;;0.50;;
52106;SDS011;38105;52.968;5.974;2022-12-08T01:54:33;4.05;;;0.40;;
52106;SDS011;38105;52.968;5.974;2022-12-08T01:57:05;3.47;;;0.22;;
52106;SDS011;38105;52.968;5.974;2022-12-08T01:59:39;5.88;;;0.50;;
52106;SDS011;38105;52.968;5.974;2022-12-08T02:02:09;3.97;;;0.50;;
52106;SDS011;38105;52.968;5.974;2022-12-08T02:04:36;5.25;;;0.60;;
52106;SDS011;38105;52.968;5.974;2022-12-08T02:07:02;2.72;;;0.43;;
52106;SDS011;38105;52.968;5.974;2022-12-08T02:09:29;3.75;;;0.50;;
52106;SDS011;38105;52.968;5.974;2022-12-08T02:11:55;5.90;;;0.75;;
52106;SDS011;38105;52.968;5.974;2022-12-08T02:14:22;4.20;;;0.30;;
52106;SDS011;38105;52.968;5.974;2022-12-08T02:27:41;6.40;;;1.05;;
52106;SDS011;38105;52.968;5.974;2022-12-08T02:43:57;6.40;;;0.70;;
52106;SDS011;38105;52.968;5.974;2022-12-08T02:46:29;5.40;;;0.75;;
52106;SDS011;38105;52.968;5.974;2022-12-08T02:48:57;3.55;;;0.60;;
52106;SDS011;38105;52.968;5.974;2022-12-08T02:51:24;3.70;;;0.68;;
52106;SDS011;38105;52.968;5.974;2022-12-08T02:53:50;6.00;;;0.95;;
52106;SDS011;38105;52.968;5.974;2022-12-08T02:56:22;7.20;;;0.50;;
52106;SDS011;38105;52.968;5.974;2022-12-08T03:01:54;3.72;;;0.77;;
52106;SDS011;38105;52.968;5.974;2022-12-08T03:10:04;4.35;;;0.57;;
52106;SDS011;38105;52.968;5.974;2022-12-08T03:12:45;5.55;;;0.52;;
52106;SDS011;38105;52.968;5.974;2022-12-08T03:15:15;4.85;;;0.65;;
52106;SDS011;38105;52.968;5.974;2022-12-08T03:17:49;5.97;;;0.90;;
52106;SDS011;38105;52.968;5.974;2022-12-08T03:20:18;7.65;;;1.23;;
52106;SDS011;38105;52.968;5.974;2022-12-08T03:22:46;3.58;;;1.35;;
52106;SDS011;38105;52.968;5.974;2022-12-08T03:25:14;5.50;;;1.75;;
52106;SDS011;38105;52.968;5.974;2022-12-08T03:27:43;7.43;;;1.25;;
52106;SDS011;38105;52.968;5.974;2022-12-08T03:30:09;4.35;;;0.60;;
52106;SDS011;38105;52.968;5.974;2022-12-08T03:32:36;4.80;;;0.70;;
52106;SDS011;38105;52.968;5.974;2022-12-08T03:35:15;5.40;;;0.47;;
52106;SDS011;38105;52.968;5.974;2022-12-08T03:37:44;2.90;;;0.47;;
52106;SDS011;38105;52.968;5.974;2022-12-08T03:40:11;2.85;;;0.63;;
52106;SDS011;38105;52.968;5.974;2022-12-08T03:42:39;5.43;;;0.40;;
52106;SDS011;38105;52.968;5.974;2022-12-08T03:45:05;2.05;;;0.40;;
52106;SDS011;38105;52.968;5.974;2022-12-08T03:47:31;3.25;;;0.38;;
52106;SDS011;38105;52.968;5.974;2022-12-08T03:49:56;4.30;;;0.47;;
52106;SDS011;38105;52.968;5.974;2022-12-08T03:52:22;3.85;;;0.60;;
52106;SDS011;38105;52.968;5.974;2022-12-08T03:54:47;3.42;;;0.47;;
52106;SDS011;38105;52.968;5.974;2022-12-08T03:57:13;7.50;;;0.52;;
52106;SDS011;38105;52.968;5.974;2022-12-08T03:59:39;0.55;;;0.30;;
52106;SDS011;38105;52.968;5.974;2022-12-08T04:02:04;5.18;;;1.05;;
52106;SDS011;38105;52.968;5.974;2022-12-08T04:04:30;2.83;;;0.90;;
52106;SDS011;38105;52.968;5.974;2022-12-08T04:06:56;5.35;;;0.90;;
52106;SDS011;38105;52.968;5.974;2022-12-08T04:09:21;4.90;;;0.80;;
52106;SDS011;38105;52.968;5.974;2022-12-08T04:11:47;4.60;;;1.98;;
52106;SDS011;38105;52.968;5.974;2022-12-08T04:14:13;3.78;;;0.82;;
52106;SDS011;38105;52.968;5.974;2022-12-08T04:16:38;5.18;;;0.90;;
52106;SDS011;38105;52.968;5.974;2022-12-08T04:19:04;2.95;;;0.80;;
52106;SDS011;38105;52.968;5.974;2022-12-08T04:21:30;2.08;;;0.70;;
52106;SDS011;38105;52.968;5.974;2022-12-08T04:23:56;5.57;;;1.67;;
52106;SDS011;38105;52.968;5.974;2022-12-08T04:26:22;2.28;;;0.90;;
52106;SDS011;38105;52.968;5.974;2022-12-08T04:28:48;2.33;;;0.70;;
52106;SDS011;38105;52.968;5.974;2022-12-08T04:31:13;5.22;;;1.33;;
52106;SDS011;38105;52.968;5.974;2022-12-08T04:33:39;2.80;;;0.85;;
52106;SDS011;38105;52.968;5.974;2022-12-08T04:36:05;2.58;;;0.82;;
52106;SDS011;38105;52.968;5.974;2022-12-08T04:38:32;3.38;;;0.85;;
52106;SDS011;38105;52.968;5.974;2022-12-08T04:40:58;3.97;;;0.80;;
52106;SDS011;38105;52.968;5.974;2022-12-08T04:43:24;5.57;;;0.90;;
52106;SDS011;38105;52.968;5.974;2022-12-08T04:45:50;2.13;;;0.47;;
52106;SDS011;38105;52.968;5.974;2022-12-08T04:48:16;1.90;;;0.50;;
52106;SDS011;38105;52.968;5.974;2022-12-08T04:50:42;3.67;;;0.60;;
52106;SDS011;38105;52.968;5.974;2022-12-08T04:53:09;4.03;;;0.60;;
52106;SDS011;38105;52.968;5.974;2022-12-08T04:55:39;2.55;;;0.40;;
52106;SDS011;38105;52.968;5.974;2022-12-08T04:58:10;7.20;;;0.70;;
52106;SDS011;38105;52.968;5.974;2022-12-08T05:00:37;2.58;;;0.40;;
52106;SDS011;38105;52.968;5.974;2022-12-08T05:03:03;1.38;;;0.40;;
52106;SDS011;38105;52.968;5.974;2022-12-08T05:05:29;4.20;;;0.28;;
52106;SDS011;38105;52.968;5.974;2022-12-08T05:07:54;4.38;;;0.50;;
52106;SDS011;38105;52.968;5.974;2022-12-08T05:10:20;5.07;;;0.40;;
52106;SDS011;38105;52.968;5.974;2022-12-08T05:12:46;3.95;;;0.68;;
52106;SDS011;38105;52.968;5.974;2022-12-08T05:15:12;2.38;;;0.30;;
52106;SDS011;38105;52.968;5.974;2022-12-08T05:17:37;1.10;;;0.35;;
52106;SDS011;38105;52.968;5.974;2022-12-08T05:20:03;2.42;;;0.20;;
52106;SDS011;38105;52.968;5.974;2022-12-08T05:22:29;5.68;;;0.40;;
52106;SDS011;38105;52.968;5.974;2022-12-08T05:24:55;4.53;;;0.65;;
52106;SDS011;38105;52.968;5.974;2022-12-08T05:27:21;5.88;;;0.75;;
52106;SDS011;38105;52.968;5.974;2022-12-08T05:29:46;4.10;;;0.60;;
52106;SDS011;38105;52.968;5.974;2022-12-08T05:32:12;9.90;;;0.98;;
52106;SDS011;38105;52.968;5.974;2022-12-08T05:34:38;4.93;;;0.47;;
52106;SDS011;38105;52.968;5.974;2022-12-08T05:37:03;4.85;;;0.43;;
52106;SDS011;38105;52.968;5.974;2022-12-08T05:39:29;6.90;;;0.50;;
52106;SDS011;38105;52.968;5.974;2022-12-08T05:41:55;4.43;;;0.40;;
52106;SDS011;38105;52.968;5.974;2022-12-08T05:44:20;3.45;;;0.40;;
52106;SDS011;38105;52.968;5.974;2022-12-08T05:46:46;4.57;;;0.30;;
52106;SDS011;38105;52.968;5.974;2022-12-08T05:49:12;2.38;;;0.38;;
52106;SDS011;38105;52.968;5.974;2022-12-08T05:51:37;3.72;;;0.40;;
52106;SDS011;38105;52.968;5.974;2022-12-08T05:54:03;5.93;;;0.52;;
52106;SDS011;38105;52.968;5.974;2022-12-08T05:56:29;3.80;;;0.30;;
52106;SDS011;38105;52.968;5.974;2022-12-08T05:58:54;2.25;;;0.45;;
52106;SDS011;38105;52.968;5.974;2022-12-08T06:01:21;4.53;;;0.40;;
52106;SDS011;38105;52.968;5.974;2022-12-08T06:03:49;5.55;;;0.50;;
52106;SDS011;38105;52.968;5.974;2022-12-08T06:06:15;4.97;;;0.80;;
52106;SDS011;38105;52.968;5.974;2022-12-08T06:08:41;4.22;;;0.85;;
52106;SDS011;38105;52.968;5.974;2022-12-08T06:11:07;4.55;;;0.43;;
52106;SDS011;38105;52.968;5.974;2022-12-08T06:13:32;3.38;;;0.25;;
52106;SDS011;38105;52.968;5.974;2022-12-08T06:16:04;9.35;;;1.40;;
52106;SDS011;38105;52.968;5.974;2022-12-08T06:18:31;6.67;;;0.60;;
52106;SDS011;38105;52.968;5.974;2022-12-08T06:21:16;5.38;;;0.60;;
52106;SDS011;38105;52.968;5.974;2022-12-08T06:23:42;4.43;;;0.70;;
52106;SDS011;38105;52.968;5.974;2022-12-08T06:26:09;3.50;;;0.90;;
52106;SDS011;38105;52.968;5.974;2022-12-08T06:28:36;7.75;;;1.10;;
52106;SDS011;38105;52.968;5.974;2022-12-08T06:31:06;6.10;;;1.27;;
52106;SDS011;38105;52.968;5.974;2022-12-08T06:33:34;4.53;;;1.55;;
52106;SDS011;38105;52.968;5.974;2022-12-08T06:36:00;6.47;;;1.50;;
52106;SDS011;38105;52.968;5.974;2022-12-08T06:38:26;6.53;;;1.50;;
52106;SDS011;38105;52.968;5.974;2022-12-08T06:40:55;5.78;;;1.55;;
52106;SDS011;38105;52.968;5.974;2022-12-08T06:43:22;4.90;;;1.98;;
52106;SDS011;38105;52.968;5.974;2022-12-08T06:45:48;6.80;;;1.67;;
52106;SDS011;38105;52.968;5.974;2022-12-08T06:48:14;9.48;;;1.20;;
52106;SDS011;38105;52.968;5.974;2022-12-08T06:50:41;5.00;;;1.55;;
52106;SDS011;38105;52.968;5.974;2022-12-08T06:53:06;5.80;;;1.88;;
52106;SDS011;38105;52.968;5.974;2022-12-08T06:55:32;2.45;;;1.25;;
52106;SDS011;38105;52.968;5.974;2022-12-08T06:57:58;5.72;;;1.23;;
52106;SDS011;38105;52.968;5.974;2022-12-08T07:00:23;6.43;;;1.38;;
52106;SDS011;38105;52.968;5.974;2022-12-08T07:02:49;3.55;;;1.90;;
52106;SDS011;38105;52.968;5.974;2022-12-08T07:05:15;3.30;;;1.20;;
52106;SDS011;38105;52.968;5.974;2022-12-08T07:07:41;4.43;;;1.65;;
52106;SDS011;38105;52.968;5.974;2022-12-08T07:10:06;8.30;;;1.80;;
52106;SDS011;38105;52.968;5.974;2022-12-08T07:12:32;4.05;;;1.67;;
52106;SDS011;38105;52.968;5.974;2022-12-08T07:14:58;6.88;;;1.58;;
52106;SDS011;38105;52.968;5.974;2022-12-08T07:17:23;4.28;;;1.67;;
52106;SDS011;38105;52.968;5.974;2022-12-08T07:19:49;3.40;;;1.17;;
52106;SDS011;38105;52.968;5.974;2022-12-08T07:22:15;2.95;;;1.10;;
52106;SDS011;38105;52.968;5.974;2022-12-08T07:24:40;2.55;;;1.35;;
52106;SDS011;38105;52.968;5.974;2022-12-08T07:27:06;2.83;;;1.25;;
52106;SDS011;38105;52.968;5.974;2022-12-08T07:29:32;2.80;;;1.15;;
52106;SDS011;38105;52.968;5.974;2022-12-08T07:31:57;3.38;;;0.77;;
52106;SDS011;38105;52.968;5.974;2022-12-08T07:34:23;6.45;;;1.00;;
52106;SDS011;38105;52.968;5.974;2022-12-08T07:36:49;3.58;;;1.70;;
52106;SDS011;38105;52.968;5.974;2022-12-08T07:39:15;5.55;;;1.27;;
52106;SDS011;38105;52.968;5.974;2022-12-08T07:41:40;6.90;;;2.17;;
52106;SDS011;38105;52.968;5.974;2022-12-08T07:44:06;4.80;;;1.33;;
52106;SDS011;38105;52.968;5.974;2022-12-08T07:46:33;4.85;;;1.20;;
52106;SDS011;38105;52.968;5.974;2022-12-08T07:48:58;4.15;;;1.23;;
52106;SDS011;38105;52.968;5.974;2022-12-08T07:51:24;2.35;;;0.82;;
52106;SDS011;38105;52.968;5.974;2022-12-08T07:53:50;7.18;;;1.13;;
52106;SDS011;38105;52.968;5.974;2022-12-08T07:56:16;3.50;;;0.98;;
52106;SDS011;38105;52.968;5.974;2022-12-08T07:58:42;5.40;;;0.95;;
52106;SDS011;38105;52.968;5.974;2022-12-08T08:01:27;6.55;;;0.80;;
52106;SDS011;38105;52.968;5.974;2022-12-08T08:03:55;4.47;;;1.00;;
52106;SDS011;38105;52.968;5.974;2022-12-08T08:06:25;4.55;;;1.00;;
52106;SDS011;38105;52.968;5.974;2022-12-08T08:08:51;5.32;;;1.25;;
52106;SDS011;38105;52.968;5.974;2022-12-08T08:11:16;4.80;;;1.30;;
52106;SDS011;38105;52.968;5.974;2022-12-08T08:13:42;7.30;;;1.55;;
52106;SDS011;38105;52.968;5.974;2022-12-08T08:16:08;4.82;;;1.65;;
52106;SDS011;38105;52.968;5.974;2022-12-08T08:18:35;6.03;;;1.55;;
52106;SDS011;38105;52.968;5.974;2022-12-08T08:21:02;6.20;;;1.40;;
52106;SDS011;38105;52.968;5.974;2022-12-08T08:23:28;5.07;;;1.48;;
52106;SDS011;38105;52.968;5.974;2022-12-08T08:25:54;6.32;;;2.03;;
52106;SDS011;38105;52.968;5.974;2022-12-08T08:28:22;6.80;;;1.38;;
52106;SDS011;38105;52.968;5.974;2022-12-08T08:30:48;13.60;;;2.25;;
52106;SDS011;38105;52.968;5.974;2022-12-08T08:33:13;10.85;;;1.73;;
52106;SDS011;38105;52.968;5.974;2022-12-08T08:35:39;7.18;;;1.48;;
52106;SDS011;38105;52.968;5.974;2022-12-08T08:38:06;6.18;;;1.60;;
52106;SDS011;38105;52.968;5.974;2022-12-08T08:40:32;4.45;;;1.25;;
52106;SDS011;38105;52.968;5.974;2022-12-08T08:42:59;5.38;;;1.65;;
52106;SDS011;38105;52.968;5.974;2022-12-08T08:45:25;5.78;;;1.00;;
52106;SDS011;38105;52.968;5.974;2022-12-08T08:47:51;7.53;;;1.40;;
52106;SDS011;38105;52.968;5.974;2022-12-08T08:50:16;5.43;;;1.17;;
52106;SDS011;38105;52.968;5.974;2022-12-08T08:52:42;7.15;;;1.30;;
52106;SDS011;38105;52.968;5.974;2022-12-08T08:55:08;4.15;;;1.20;;
52106;SDS011;38105;52.968;5.974;2022-12-08T08:57:33;5.70;;;1.20;;
52106;SDS011;38105;52.968;5.974;2022-12-08T08:59:59;6.38;;;1.10;;
52106;SDS011;38105;52.968;5.974;2022-12-08T09:02:25;5.55;;;1.13;;
52106;SDS011;38105;52.968;5.974;2022-12-08T09:04:51;9.23;;;1.30;;
52106;SDS011;38105;52.968;5.974;2022-12-08T09:07:17;8.63;;;1.10;;
52106;SDS011;38105;52.968;5.974;2022-12-08T09:09:42;4.75;;;1.10;;
52106;SDS011;38105;52.968;5.974;2022-12-08T09:12:08;5.30;;;1.50;;
52106;SDS011;38105;52.968;5.974;2022-12-08T09:14:34;6.00;;;1.92;;
52106;SDS011;38105;52.968;5.974;2022-12-08T09:17:00;7.78;;;2.10;;
52106;SDS011;38105;52.968;5.974;2022-12-08T09:19:25;7.80;;;1.63;;
52106;SDS011;38105;52.968;5.974;2022-12-08T09:21:51;4.63;;;1.70;;
52106;SDS011;38105;52.968;5.974;2022-12-08T09:24:17;10.43;;;2.85;;
52106;SDS011;38105;52.968;5.974;2022-12-08T09:26:42;6.32;;;2.10;;
52106;SDS011;38105;52.968;5.974;2022-12-08T09:29:08;8.63;;;1.20;;
52106;SDS011;38105;52.968;5.974;2022-12-08T09:31:35;10.95;;;1.65;;
52106;SDS011;38105;52.968;5.974;2022-12-08T09:34:02;3.97;;;1.13;;
52106;SDS011;38105;52.968;5.974;2022-12-08T09:36:28;8.32;;;1.50;;
52106;SDS011;38105;52.968;5.974;2022-12-08T09:38:54;5.15;;;1.42;;
52106;SDS011;38105;52.968;5.974;2022-12-08T09:41:26;5.18;;;1.27;;
52106;SDS011;38105;52.968;5.974;2022-12-08T09:44:10;9.40;;;1.55;;
52106;SDS011;38105;52.968;5.974;2022-12-08T09:46:55;10.77;;;1.63;;
52106;SDS011;38105;52.968;5.974;2022-12-08T09:49:32;6.25;;;1.30;;
52106;SDS011;38105;52.968;5.974;2022-12-08T09:52:03;3.75;;;1.08;;
52106;SDS011;38105;52.968;5.974;2022-12-08T09:54:32;5.78;;;1.40;;
52106;SDS011;38105;52.968;5.974;2022-12-08T09:57:00;3.90;;;1.05;;
52106;SDS011;38105;52.968;5.974;2022-12-08T09:59:31;5.88;;;0.77;;
52106;SDS011;38105;52.968;5.974;2022-12-08T10:01:59;5.22;;;1.00;;
52106;SDS011;38105;52.968;5.974;2022-12-08T10:04:38;6.85;;;1.35;;
52106;SDS011;38105;52.968;5.974;2022-12-08T10:07:21;4.68;;;0.80;;
52106;SDS011;38105;52.968;5.974;2022-12-08T10:10:19;7.37;;;1.30;;
52106;SDS011;38105;52.968;5.974;2022-12-08T10:18:21;4.60;;;1.00;;
52106;SDS011;38105;52.968;5.974;2022-12-08T10:20:51;5.68;;;1.00;;
52106;SDS011;38105;52.968;5.974;2022-12-08T10:23:24;6.55;;;1.05;;
52106;SDS011;38105;52.968;5.974;2022-12-08T10:26:01;2.65;;;0.80;;
52106;SDS011;38105;52.968;5.974;2022-12-08T10:28:38;4.32;;;0.60;;
52106;SDS011;38105;52.968;5.974;2022-12-08T10:31:03;7.65;;;0.95;;
52106;SDS011;38105;52.968;5.974;2022-12-08T10:33:29;10.80;;;1.10;;
52106;SDS011;38105;52.968;5.974;2022-12-08T10:35:57;3.83;;;1.05;;
52106;SDS011;38105;52.968;5.974;2022-12-08T10:38:36;3.17;;;0.60;;
52106;SDS011;38105;52.968;5.974;2022-12-08T10:41:10;4.30;;;0.52;;
52106;SDS011;38105;52.968;5.974;2022-12-08T10:43:42;7.32;;;0.70;;
52106;SDS011;38105;52.968;5.974;2022-12-08T10:46:21;7.88;;;0.93;;
52106;SDS011;38105;52.968;5.974;2022-12-08T10:51:34;6.20;;;0.75;;
52106;SDS011;38105;52.968;5.974;2022-12-08T10:54:02;4.45;;;0.80;;
52106;SDS011;38105;52.968;5.974;2022-12-08T10:56:30;9.18;;;1.02;;
52106;SDS011;38105;52.968;5.974;2022-12-08T10:59:11;6.65;;;0.90;;
52106;SDS011;38105;52.968;5.974;2022-12-08T11:01:39;8.55;;;0.63;;
52106;SDS011;38105;52.968;5.974;2022-12-08T11:04:11;3.60;;;0.70;;
52106;SDS011;38105;52.968;5.974;2022-12-08T11:06:41;5.72;;;0.98;;
52106;SDS011;38105;52.968;5.974;2022-12-08T11:12:05;4.50;;;0.43;;
52106;SDS011;38105;52.968;5.974;2022-12-08T11:14:35;2.88;;;0.50;;
52106;SDS011;38105;52.968;5.974;2022-12-08T11:20:00;4.10;;;1.00;;
52106;SDS011;38105;52.968;5.974;2022-12-08T11:22:53;3.90;;;0.40;;
52106;SDS011;38105;52.968;5.974;2022-12-08T11:27:50;4.68;;;0.77;;
52106;SDS011;38105;52.968;5.974;2022-12-08T11:31:00;4.38;;;0.60;;
52106;SDS011;38105;52.968;5.974;2022-12-08T11:33:19;32.08;;;15.95;;
52106;SDS011;38105;52.968;5.974;2022-12-08T11:35:52;14.13;;;6.15;;
52106;SDS011;38105;52.968;5.974;2022-12-08T11:38:20;2.58;;;0.90;;
52106;SDS011;38105;52.968;5.974;2022-12-08T11:40:51;3.90;;;1.55;;
52106;SDS011;38105;52.968;5.974;2022-12-08T11:46:08;14.27;;;4.20;;
52106;SDS011;38105;52.968;5.974;2022-12-08T11:51:19;6.70;;;0.85;;
52106;SDS011;38105;52.968;5.974;2022-12-08T11:54:11;3.83;;;0.40;;
52106;SDS011;38105;52.968;5.974;2022-12-08T11:56:50;5.10;;;0.47;;
52106;SDS011;38105;52.968;5.974;2022-12-08T11:59:35;6.35;;;0.55;;
52106;SDS011;38105;52.968;5.974;2022-12-08T12:02:24;3.42;;;0.35;;
52106;SDS011;38105;52.968;5.974;2022-12-08T12:05:04;4.88;;;0.45;;
52106;SDS011;38105;52.968;5.974;2022-12-08T12:10:24;4.13;;;0.57;;
52106;SDS011;38105;52.968;5.974;2022-12-08T12:19:00;8.60;;;1.48;;
52106;SDS011;38105;52.968;5.974;2022-12-08T12:21:32;4.45;;;0.60;;
52106;SDS011;38105;52.968;5.974;2022-12-08T12:24:03;6.45;;;0.98;;
52106;SDS011;38105;52.968;5.974;2022-12-08T12:26:34;8.05;;;1.13;;
52106;SDS011;38105;52.968;5.974;2022-12-08T12:29:07;5.00;;;0.60;;
52106;SDS011;38105;52.968;5.974;2022-12-08T12:31:47;6.22;;;0.85;;
52106;SDS011;38105;52.968;5.974;2022-12-08T12:34:19;9.50;;;1.10;;
52106;SDS011;38105;52.968;5.974;2022-12-08T12:37:07;7.28;;;1.00;;
52106;SDS011;38105;52.968;5.974;2022-12-08T12:55:56;3.90;;;0.90;;
52106;SDS011;38105;52.968;5.974;2022-12-08T13:03:42;5.95;;;0.55;;
52106;SDS011;38105;52.968;5.974;2022-12-08T13:06:14;3.22;;;0.40;;
52106;SDS011;38105;52.968;5.974;2022-12-08T13:08:51;3.15;;;0.50;;
52106;SDS011;38105;52.968;5.974;2022-12-08T13:11:19;4.13;;;1.05;;
52106;SDS011;38105;52.968;5.974;2022-12-08T13:13:56;5.18;;;0.60;;
52106;SDS011;38105;52.968;5.974;2022-12-08T13:16:30;3.25;;;0.60;;
52106;SDS011;38105;52.968;5.974;2022-12-08T13:18:59;5.85;;;1.17;;
52106;SDS011;38105;52.968;5.974;2022-12-08T13:21:31;4.47;;;1.10;;
52106;SDS011;38105;52.968;5.974;2022-12-08T13:29:22;3.08;;;0.50;;
52106;SDS011;38105;52.968;5.974;2022-12-08T13:31:50;4.63;;;0.90;;
52106;SDS011;38105;52.968;5.974;2022-12-08T13:42:27;4.43;;;0.50;;
52106;SDS011;38105;52.968;5.974;2022-12-08T13:50:39;6.07;;;0.70;;
52106;SDS011;38105;52.968;5.974;2022-12-08T13:55:54;5.38;;;0.95;;
52106;SDS011;38105;52.968;5.974;2022-12-08T13:58:24;3.47;;;0.60;;
52106;SDS011;38105;52.968;5.974;2022-12-08T14:03:33;5.00;;;0.57;;
52106;SDS011;38105;52.968;5.974;2022-12-08T14:08:52;5.97;;;0.90;;
52106;SDS011;38105;52.968;5.974;2022-12-08T14:11:23;4.60;;;0.95;;
52106;SDS011;38105;52.968;5.974;2022-12-08T14:16:38;8.95;;;1.35;;
52106;SDS011;38105;52.968;5.974;2022-12-08T14:19:06;4.43;;;0.70;;
52106;SDS011;38105;52.968;5.974;2022-12-08T14:21:40;3.65;;;1.10;;
52106;SDS011;38105;52.968;5.974;2022-12-08T14:24:09;3.70;;;1.00;;
52106;SDS011;38105;52.968;5.974;2022-12-08T14:26:36;6.13;;;1.20;;
52106;SDS011;38105;52.968;5.974;2022-12-08T14:29:02;6.70;;;1.40;;
52106;SDS011;38105;52.968;5.974;2022-12-08T14:31:32;4.68;;;1.20;;
52106;SDS011;38105;52.968;5.974;2022-12-08T14:33:58;7.30;;;1.45;;
52106;SDS011;38105;52.968;5.974;2022-12-08T14:36:24;3.90;;;1.20;;
52106;SDS011;38105;52.968;5.974;2022-12-08T14:38:50;3.45;;;1.00;;
52106;SDS011;38105;52.968;5.974;2022-12-08T14:41:23;5.95;;;1.52;;
52106;SDS011;38105;52.968;5.974;2022-12-08T14:43:57;7.90;;;1.90;;
52106;SDS011;38105;52.968;5.974;2022-12-08T14:46:25;4.57;;;1.25;;
52106;SDS011;38105;52.968;5.974;2022-12-08T14:48:50;4.75;;;1.42;;
52106;SDS011;38105;52.968;5.974;2022-12-08T14:59:11;6.95;;;1.80;;
52106;SDS011;38105;52.968;5.974;2022-12-08T15:02:29;6.53;;;1.77;;
52106;SDS011;38105;52.968;5.974;2022-12-08T15:05:03;5.13;;;1.50;;
52106;SDS011;38105;52.968;5.974;2022-12-08T15:07:46;6.38;;;1.73;;
52106;SDS011;38105;52.968;5.974;2022-12-08T15:12:40;8.52;;;2.53;;
52106;SDS011;38105;52.968;5.974;2022-12-08T15:15:22;4.70;;;1.88;;
52106;SDS011;38105;52.968;5.974;2022-12-08T15:17:49;3.67;;;1.77;;
52106;SDS011;38105;52.968;5.974;2022-12-08T15:23:20;8.55;;;2.30;;
52106;SDS011;38105;52.968;5.974;2022-12-08T15:25:57;7.50;;;2.30;;
52106;SDS011;38105;52.968;5.974;2022-12-08T15:28:25;7.22;;;2.92;;
52106;SDS011;38105;52.968;5.974;2022-12-08T15:30:51;2.15;;;1.63;;
52106;SDS011;38105;52.968;5.974;2022-12-08T15:33:18;4.82;;;2.30;;
52106;SDS011;38105;52.968;5.974;2022-12-08T15:35:44;3.83;;;1.90;;
52106;SDS011;38105;52.968;5.974;2022-12-08T15:38:18;7.15;;;2.15;;
52106;SDS011;38105;52.968;5.974;2022-12-08T15:40:49;3.95;;;1.98;;
52106;SDS011;38105;52.968;5.974;2022-12-08T15:43:15;5.38;;;2.38;;
52106;SDS011;38105;52.968;5.974;2022-12-08T15:45:41;4.15;;;2.65;;
52106;SDS011;38105;52.968;5.974;2022-12-08T15:48:11;6.10;;;2.05;;
52106;SDS011;38105;52.968;5.974;2022-12-08T15:50:42;5.90;;;2.42;;
52106;SDS011;38105;52.968;5.974;2022-12-08T15:53:10;5.95;;;2.90;;
52106;SDS011;38105;52.968;5.974;2022-12-08T15:55:36;8.77;;;3.38;;
52106;SDS011;38105;52.968;5.974;2022-12-08T15:58:02;9.43;;;3.95;;
52106;SDS011;38105;52.968;5.974;2022-12-08T16:00:29;8.02;;;3.22;;
52106;SDS011;38105;52.968;5.974;2022-12-08T16:02:58;7.65;;;2.90;;
52106;SDS011;38105;52.968;5.974;2022-12-08T16:05:24;5.47;;;2.92;;
52106;SDS011;38105;52.968;5.974;2022-12-08T16:07:51;5.93;;;2.80;;
52106;SDS011;38105;52.968;5.974;2022-12-08T16:10:22;6.75;;;2.78;;
52106;SDS011;38105;52.968;5.974;2022-12-08T16:12:50;6.60;;;3.15;;
52106;SDS011;38105;52.968;5.974;2022-12-08T16:15:39;7.45;;;3.22;;
52106;SDS011;38105;52.968;5.974;2022-12-08T16:18:08;8.82;;;4.03;;
52106;SDS011;38105;52.968;5.974;2022-12-08T16:20:39;10.48;;;7.18;;
52106;SDS011;38105;52.968;5.974;2022-12-08T16:23:05;18.95;;;12.60;;
52106;SDS011;38105;52.968;5.974;2022-12-08T16:25:30;18.52;;;10.20;;
52106;SDS011;38105;52.968;5.974;2022-12-08T16:27:56;12.23;;;6.45;;
52106;SDS011;38105;52.968;5.974;2022-12-08T16:30:21;9.50;;;5.63;;
52106;SDS011;38105;52.968;5.974;2022-12-08T16:32:47;11.20;;;6.80;;
52106;SDS011;38105;52.968;5.974;2022-12-08T16:35:13;12.35;;;7.03;;
52106;SDS011;38105;52.968;5.974;2022-12-08T16:37:39;9.48;;;6.20;;
52106;SDS011;38105;52.968;5.974;2022-12-08T16:40:05;11.15;;;7.07;;
52106;SDS011;38105;52.968;5.974;2022-12-08T16:42:32;11.18;;;8.30;;
52106;SDS011;38105;52.968;5.974;2022-12-08T16:47:32;14.48;;;9.30;;
52106;SDS011;38105;52.968;5.974;2022-12-08T16:49:58;12.80;;;7.07;;
52106;SDS011;38105;52.968;5.974;2022-12-08T16:52:24;10.23;;;6.18;;
52106;SDS011;38105;52.968;5.974;2022-12-08T16:54:50;11.50;;;7.00;;
52106;SDS011;38105;52.968;5.974;2022-12-08T16:57:15;9.77;;;6.63;;
52106;SDS011;38105;52.968;5.974;2022-12-08T16:59:41;9.35;;;6.57;;
52106;SDS011;38105;52.968;5.974;2022-12-08T17:02:07;11.38;;;6.00;;
52106;SDS011;38105;52.968;5.974;2022-12-08T17:04:34;11.30;;;6.28;;
52106;SDS011;38105;52.968;5.974;2022-12-08T17:06:59;11.15;;;7.60;;
52106;SDS011;38105;52.968;5.974;2022-12-08T17:09:25;10.70;;;5.70;;